createdAt,value
2023-02-01T00:02:03.906Z,51.90
2023-02-01T00:04:33.213Z,51.90
2023-02-01T00:07:02.835Z,52.30
2023-02-01T00:09:32.126Z,52.20
2023-02-01T00:12:03.961Z,52.00
2023-02-01T00:14:39.420Z,52.30
2023-02-01T00:17:09.029Z,52.30
2023-02-01T00:19:38.289Z,52.00
2023-02-01T00:22:07.568Z,52.00
2023-02-01T00:24:36.844Z,52.30
2023-02-01T00:27:07.558Z,51.90
2023-02-01T00:29:36.980Z,52.10
2023-02-01T00:32:07.233Z,52.20
2023-02-01T00:34:36.753Z,52.60
2023-02-01T00:37:06.232Z,52.30
2023-02-01T00:39:35.592Z,52.20
2023-02-01T00:42:06.373Z,52.20
2023-02-01T00:44:36.455Z,52.20
2023-02-01T00:47:05.745Z,52.10
2023-02-01T00:49:35.102Z,52.40
2023-02-01T00:52:04.398Z,53.10
2023-02-01T00:54:33.799Z,52.10
2023-02-01T00:57:03.170Z,52.20
2023-02-01T00:59:33.921Z,52.30
2023-02-01T01:02:03.234Z,52.70
2023-02-01T01:04:32.571Z,52.50
2023-02-01T01:07:01.793Z,52.30
2023-02-01T01:09:31.091Z,52.50
2023-02-01T01:12:03.623Z,52.40
2023-02-01T01:14:36.125Z,52.70
2023-02-01T01:17:05.338Z,52.40
2023-02-01T01:19:34.656Z,52.50
2023-02-01T01:22:04.020Z,52.70
2023-02-01T01:24:33.352Z,52.50
2023-02-01T01:27:02.622Z,52.60
2023-02-01T01:29:31.889Z,52.60
2023-02-01T01:32:02.817Z,52.90
2023-02-01T01:34:32.247Z,52.80
2023-02-01T01:37:01.463Z,52.70
2023-02-01T01:39:31.644Z,52.70
2023-02-01T01:42:01.100Z,52.60
2023-02-01T01:45:00.240Z,53.10
2023-02-01T01:47:36.687Z,52.90
2023-02-01T01:50:09.247Z,52.80
2023-02-01T01:52:39.665Z,53.60
2023-02-01T01:55:10.290Z,53.30
2023-02-01T01:57:45.129Z,52.80
2023-02-01T02:00:17.887Z,52.90
2023-02-01T02:02:51.724Z,53.30
2023-02-01T02:05:22.083Z,52.90
2023-02-01T02:07:53.585Z,53.00
2023-02-01T02:10:43.178Z,53.60
2023-02-01T02:13:13.051Z,53.40
2023-02-01T02:15:47.972Z,53.00
2023-02-01T02:18:29.544Z,53.80
2023-02-01T02:21:14.938Z,53.70
2023-02-01T02:24:13.242Z,53.60
2023-02-01T02:27:06.561Z,53.60
2023-02-01T02:29:57.833Z,53.40
2023-02-01T02:33:19.024Z,53.50
2023-02-01T02:35:53.150Z,53.70
2023-02-01T02:38:32.523Z,54.20
2023-02-01T02:41:10.049Z,54.10
2023-02-01T02:44:05.929Z,53.50
2023-02-01T02:46:58.714Z,54.10
2023-02-01T02:49:36.916Z,54.00
2023-02-01T02:52:29.479Z,53.70
2023-02-01T02:54:59.944Z,54.10
2023-02-01T02:57:49.959Z,54.70
2023-02-01T03:00:38.793Z,53.80
2023-02-01T03:03:26.680Z,54.20
2023-02-01T03:05:58.375Z,54.00
2023-02-01T03:08:29.469Z,54.20
2023-02-01T03:11:02.443Z,54.20
2023-02-01T03:13:37.612Z,54.10
2023-02-01T03:16:12.294Z,54.90
2023-02-01T03:18:51.174Z,54.30
2023-02-01T03:21:26.712Z,54.50
2023-02-01T03:23:59.995Z,54.00
2023-02-01T03:26:33.097Z,55.40
2023-02-01T03:29:10.849Z,54.90
2023-02-01T03:31:40.487Z,54.30
2023-02-01T03:34:10.036Z,54.80
2023-02-01T03:36:46.272Z,55.20
2023-02-01T03:39:21.575Z,54.90
2023-02-01T03:41:55.270Z,55.20
2023-02-01T03:44:28.717Z,55.70
2023-02-01T03:47:01.756Z,54.70
2023-02-01T03:49:34.912Z,55.30
2023-02-01T03:52:10.816Z,54.90
2023-02-01T03:54:41.407Z,55.30
2023-02-01T03:57:15.510Z,55.20
2023-02-01T03:59:47.295Z,54.90
2023-02-01T04:02:16.731Z,54.90
2023-02-01T04:04:46.841Z,55.80
2023-02-01T04:07:20.579Z,55.90
2023-02-01T04:09:49.844Z,55.40
2023-02-01T04:12:19.176Z,55.50
2023-02-01T04:14:48.497Z,55.30
2023-02-01T04:17:17.740Z,55.90
2023-02-01T04:19:46.997Z,55.20
2023-02-01T04:22:18.941Z,55.90
2023-02-01T04:24:49.938Z,55.70
2023-02-01T04:27:19.309Z,55.30
2023-02-01T04:29:50.717Z,56.60
2023-02-01T04:32:20.971Z,55.60
2023-02-01T04:34:50.305Z,56.60
2023-02-01T04:37:19.549Z,56.30
2023-02-01T04:39:50.209Z,55.90
2023-02-01T04:42:19.457Z,56.10
2023-02-01T04:44:48.921Z,56.40
2023-02-01T04:47:18.170Z,56.30
2023-02-01T04:49:47.582Z,56.40
2023-02-01T04:52:16.939Z,55.90
2023-02-01T04:54:46.261Z,56.50
2023-02-01T04:57:16.952Z,57.20
2023-02-01T04:59:46.165Z,57.20
2023-02-01T05:02:15.379Z,56.50
2023-02-01T05:04:44.711Z,57.10
2023-02-01T05:07:14.102Z,56.10
2023-02-01T05:09:43.286Z,55.80
2023-02-01T05:12:30.252Z,57.30
2023-02-01T05:15:01.070Z,56.40
2023-02-01T05:17:30.311Z,56.10
2023-02-01T05:19:59.565Z,56.90
2023-02-01T05:22:28.916Z,56.70
2023-02-01T05:24:58.265Z,57.00
2023-02-01T05:27:27.635Z,57.80
2023-02-01T05:29:56.861Z,57.40
2023-02-01T05:32:27.839Z,57.30
2023-02-01T05:34:57.556Z,57.70
2023-02-01T05:37:26.856Z,57.80
2023-02-01T05:39:56.089Z,57.50
2023-02-01T05:42:25.357Z,58.50
2023-02-01T05:44:54.739Z,57.40
2023-02-01T05:47:23.938Z,58.30
2023-02-01T05:49:54.616Z,58.00
2023-02-01T05:52:23.856Z,58.10
2023-02-01T05:54:53.807Z,58.40
2023-02-01T05:57:23.135Z,58.30
2023-02-01T05:59:52.503Z,58.00
2023-02-01T06:02:22.894Z,58.30
2023-02-01T06:04:53.896Z,58.40
2023-02-01T06:07:23.140Z,58.60
2023-02-01T06:09:52.435Z,58.00
2023-02-01T06:12:21.667Z,58.70
2023-02-01T06:14:51.080Z,58.40
2023-02-01T06:17:20.540Z,58.30
2023-02-01T06:19:50.250Z,58.40
2023-02-01T06:22:21.082Z,56.70
2023-02-01T06:24:50.540Z,56.60
2023-02-01T06:27:19.928Z,57.50
2023-02-01T06:29:49.275Z,56.00
2023-02-01T06:32:19.257Z,55.20
2023-02-01T06:34:48.645Z,54.00
2023-02-01T06:37:17.999Z,53.50
2023-02-01T06:39:49.293Z,52.80
2023-02-01T06:42:18.612Z,52.40
2023-02-01T06:44:47.929Z,51.60
2023-02-01T06:47:17.193Z,51.30
2023-02-01T06:49:46.461Z,51.30
2023-02-01T06:52:16.107Z,51.80
2023-02-01T06:54:45.403Z,51.80
2023-02-01T06:57:17.205Z,51.70
2023-02-01T06:59:46.435Z,51.60
2023-02-01T07:02:15.899Z,51.40
2023-02-01T07:04:45.334Z,51.20
2023-02-01T07:07:15.485Z,51.40
2023-02-01T07:09:44.911Z,51.20
2023-02-01T07:12:15.685Z,50.90
2023-02-01T07:14:45.131Z,50.90
2023-02-01T07:17:14.475Z,50.70
2023-02-01T07:19:43.765Z,50.60
2023-02-01T07:22:12.990Z,50.60
2023-02-01T07:24:42.353Z,50.80
2023-02-01T07:27:11.911Z,50.70
2023-02-01T07:29:43.088Z,50.60
2023-02-01T07:32:12.612Z,50.70
2023-02-01T07:34:42.022Z,50.90
2023-02-01T07:37:11.249Z,50.80
2023-02-01T07:39:40.481Z,50.90
2023-02-01T07:42:09.805Z,50.90
2023-02-01T07:44:39.115Z,51.20
2023-02-01T07:47:09.787Z,51.00
2023-02-01T07:49:39.161Z,50.80
2023-02-01T07:52:08.438Z,50.40
2023-02-01T07:54:39.091Z,50.60
2023-02-01T07:57:10.020Z,50.50
2023-02-01T07:59:59.491Z,50.40
2023-02-01T08:02:30.430Z,50.40
2023-02-01T08:04:59.773Z,50.40
2023-02-01T08:07:28.976Z,50.30
2023-02-01T08:09:58.231Z,50.40
2023-02-01T08:12:28.082Z,50.40
2023-02-01T08:14:57.591Z,50.40
2023-02-01T08:17:27.449Z,50.30
2023-02-01T08:19:58.289Z,50.30
2023-02-01T08:22:28.890Z,50.30
2023-02-01T08:25:02.489Z,50.10
2023-02-01T08:27:31.846Z,50.20
2023-02-01T08:30:01.473Z,50.20
2023-02-01T08:32:30.717Z,50.10
2023-02-01T08:35:01.503Z,50.00
2023-02-01T08:37:31.027Z,50.00
2023-02-01T08:40:00.244Z,50.00
2023-02-01T08:42:47.099Z,49.80
2023-02-01T08:45:16.438Z,49.80
2023-02-01T08:47:45.688Z,49.80
2023-02-01T08:50:17.011Z,49.70
2023-02-01T08:52:46.355Z,49.70
2023-02-01T08:55:16.532Z,49.70
2023-02-01T08:57:46.071Z,49.70
2023-02-01T09:00:18.758Z,49.50
2023-02-01T09:02:48.153Z,49.50
2023-02-01T09:05:23.360Z,49.40
2023-02-01T09:07:52.641Z,49.50
2023-02-01T09:10:34.278Z,49.20
2023-02-01T09:13:04.270Z,49.20
2023-02-01T09:15:33.715Z,49.20
2023-02-01T09:18:03.110Z,49.30
2023-02-01T09:20:33.908Z,49.30
2023-02-01T09:23:03.231Z,49.30
2023-02-01T09:25:32.701Z,49.20
2023-02-01T09:28:02.064Z,49.30
2023-02-01T09:30:31.508Z,49.30
2023-02-01T09:33:00.876Z,49.20
2023-02-01T09:35:30.357Z,49.00
2023-02-01T09:38:01.149Z,49.00
2023-02-01T09:40:30.711Z,49.00
2023-02-01T09:43:23.852Z,48.90
2023-02-01T09:46:05.041Z,48.80
2023-02-01T09:48:38.870Z,48.80
2023-02-01T09:51:17.452Z,48.80
2023-02-01T09:53:57.778Z,48.80
2023-02-01T09:56:33.263Z,48.80
2023-02-01T09:59:10.706Z,48.80
2023-02-01T10:01:40.409Z,48.90
2023-02-01T10:04:13.674Z,49.00
2023-02-01T10:06:54.812Z,48.80
2023-02-01T10:09:43.864Z,48.60
2023-02-01T10:12:54.679Z,48.60
2023-02-01T10:15:49.970Z,48.60
2023-02-01T10:18:37.026Z,48.60
2023-02-01T10:21:16.119Z,48.60
2023-02-01T10:24:24.125Z,48.50
2023-02-01T10:27:02.022Z,48.60
2023-02-01T10:29:39.934Z,48.50
2023-02-01T10:32:16.324Z,48.50
2023-02-01T10:34:48.799Z,49.10
2023-02-01T10:37:26.988Z,48.50
2023-02-01T10:39:58.728Z,48.50
2023-02-01T10:42:30.976Z,48.40
2023-02-01T10:45:05.457Z,48.40
2023-02-01T10:47:34.882Z,48.40
2023-02-01T10:50:16.867Z,48.40
2023-02-01T10:52:50.848Z,48.40
2023-02-01T10:55:34.529Z,48.40
2023-02-01T10:58:07.955Z,48.30
2023-02-01T11:00:46.345Z,48.30
2023-02-01T11:03:36.283Z,48.40
2023-02-01T11:06:12.740Z,48.40
2023-02-01T11:08:47.673Z,48.40
2023-02-01T11:11:19.269Z,48.60
2023-02-01T11:13:56.050Z,48.80
2023-02-01T11:16:35.328Z,48.90
2023-02-01T11:19:05.680Z,49.00
2023-02-01T11:21:35.872Z,49.10
2023-02-01T11:24:07.996Z,49.10
2023-02-01T11:26:42.797Z,49.30
2023-02-01T11:29:18.821Z,49.30
2023-02-01T11:31:48.908Z,49.30
2023-02-01T11:34:23.268Z,49.30
2023-02-01T11:36:54.273Z,49.30
2023-02-01T11:39:28.051Z,49.40
2023-02-01T11:42:02.339Z,49.40
2023-02-01T11:44:38.023Z,49.40
2023-02-01T11:47:27.627Z,49.40
2023-02-01T11:49:58.570Z,49.50
2023-02-01T11:52:43.709Z,49.70
2023-02-01T11:55:31.786Z,49.30
2023-02-01T11:58:23.218Z,48.90
2023-02-01T12:01:06.767Z,48.80
2023-02-01T12:04:11.164Z,48.40
2023-02-01T12:06:51.923Z,48.00
2023-02-01T12:09:36.817Z,47.80
2023-02-01T12:12:15.253Z,47.60
2023-02-01T12:15:05.940Z,47.40
2023-02-01T12:18:03.521Z,47.30
2023-02-01T12:20:58.320Z,46.90
2023-02-01T12:23:53.283Z,47.00
2023-02-01T12:26:47.028Z,46.80
2023-02-01T12:29:37.148Z,46.70
2023-02-01T12:32:22.055Z,46.60
2023-02-01T12:35:16.673Z,46.50
2023-02-01T12:38:09.644Z,46.50
2023-02-01T12:41:22.387Z,46.70
2023-02-01T12:44:12.394Z,47.10
2023-02-01T12:46:52.948Z,47.30
2023-02-01T12:49:58.290Z,47.40
2023-02-01T12:52:37.954Z,47.50
2023-02-01T12:55:17.931Z,47.50
2023-02-01T12:57:51.863Z,47.40
2023-02-01T13:00:29.649Z,47.10
2023-02-01T13:03:04.623Z,47.70
2023-02-01T13:05:42.145Z,48.40
2023-02-01T13:08:16.767Z,48.50
2023-02-01T13:10:49.718Z,49.30
2023-02-01T13:13:25.406Z,49.60
2023-02-01T13:16:18.069Z,49.70
2023-02-01T13:18:52.748Z,49.80
2023-02-01T13:21:26.732Z,49.80
2023-02-01T13:23:57.888Z,50.10
2023-02-01T13:26:27.624Z,50.20
2023-02-01T13:29:00.961Z,50.70
2023-02-01T13:31:51.956Z,51.40
2023-02-01T13:35:00.716Z,50.70
2023-02-01T13:37:44.221Z,50.80
2023-02-01T13:40:32.763Z,51.00
2023-02-01T13:43:05.147Z,51.00
2023-02-01T13:45:38.258Z,51.20
2023-02-01T13:48:17.340Z,51.50
2023-02-01T13:50:52.451Z,51.30
2023-02-01T13:53:26.721Z,51.50
2023-02-01T13:56:02.493Z,51.70
2023-02-01T13:58:38.001Z,51.90
2023-02-01T14:01:38.474Z,51.90
2023-02-01T14:04:29.742Z,52.20
2023-02-01T14:07:00.037Z,52.10
2023-02-01T14:09:38.267Z,52.20
2023-02-01T14:12:47.764Z,52.90
2023-02-01T14:15:27.366Z,52.30
2023-02-01T14:17:57.948Z,52.30
2023-02-01T14:20:54.284Z,52.40
2023-02-01T14:26:23.118Z,52.20
2023-02-01T14:29:01.602Z,52.30
2023-02-01T14:31:58.501Z,52.10
2023-02-01T14:34:34.388Z,51.80
2023-02-01T14:37:06.590Z,52.40
2023-02-01T14:39:52.113Z,52.40
2023-02-01T14:42:26.638Z,52.10
2023-02-01T14:45:00.144Z,52.10
2023-02-01T14:47:36.881Z,52.50
2023-02-01T14:50:27.208Z,53.20
2023-02-01T14:53:13.326Z,52.50
2023-02-01T14:55:44.991Z,53.00
2023-02-01T14:58:21.277Z,52.70
2023-02-01T15:00:55.343Z,52.70
2023-02-01T15:03:51.071Z,52.80
2023-02-01T15:06:38.429Z,52.90
2023-02-01T15:09:13.875Z,53.00
2023-02-01T15:12:05.625Z,53.30
2023-02-01T15:14:37.171Z,53.10
2023-02-01T15:17:21.687Z,53.00
2023-02-01T15:19:58.112Z,53.10
2023-02-01T15:22:28.522Z,53.20
2023-02-01T15:24:59.706Z,53.00
2023-02-01T15:27:30.009Z,52.90
2023-02-01T15:30:08.338Z,54.40
2023-02-01T15:32:42.605Z,53.70
2023-02-01T15:35:43.591Z,53.60
2023-02-01T15:38:43.986Z,53.00
2023-02-01T15:41:16.564Z,53.50
2023-02-01T15:43:51.298Z,53.10
2023-02-01T15:46:25.110Z,53.30
2023-02-01T15:48:56.772Z,53.50
2023-02-01T15:51:28.598Z,53.50
2023-02-01T15:54:01.025Z,53.40
2023-02-01T15:56:36.405Z,53.80
2023-02-01T15:59:14.839Z,53.70
2023-02-01T16:01:44.422Z,53.50
2023-02-01T16:04:20.714Z,53.50
2023-02-01T16:06:53.179Z,53.30
2023-02-01T16:09:25.061Z,53.40
2023-02-01T16:12:00.204Z,53.30
2023-02-01T16:14:29.863Z,53.10
2023-02-01T16:17:01.009Z,53.00
2023-02-01T16:19:31.761Z,52.90
2023-02-01T16:22:00.965Z,53.00
2023-02-01T16:24:30.183Z,53.00
2023-02-01T16:26:59.347Z,53.70
2023-02-01T16:29:28.531Z,53.20
2023-02-01T16:31:58.023Z,53.30
2023-02-01T16:34:27.551Z,53.10
2023-02-01T16:36:58.341Z,53.30
2023-02-01T16:39:28.875Z,53.40
2023-02-01T16:42:00.728Z,53.50
2023-02-01T16:44:30.659Z,53.40
2023-02-01T16:46:59.910Z,53.40
2023-02-01T16:49:29.406Z,54.10
2023-02-01T16:52:01.106Z,53.10
2023-02-01T16:54:30.472Z,53.00
2023-02-01T16:56:59.749Z,52.70
2023-02-01T16:59:29.051Z,52.60
2023-02-01T17:01:58.265Z,52.50
2023-02-01T17:04:27.640Z,52.20
2023-02-01T17:06:56.889Z,52.40
2023-02-01T17:09:27.619Z,52.20
2023-02-01T17:11:56.819Z,52.20
2023-02-01T17:14:26.096Z,52.00
2023-02-01T17:16:55.798Z,51.90
2023-02-01T17:19:25.507Z,51.80
2023-02-01T17:21:56.989Z,51.50
2023-02-01T17:24:42.428Z,51.50
2023-02-01T17:27:16.382Z,51.20
2023-02-01T17:29:47.223Z,51.10
2023-02-01T17:32:19.746Z,51.10
2023-02-01T17:34:49.283Z,51.40
2023-02-01T17:37:30.781Z,51.70
2023-02-01T17:40:02.096Z,52.30
2023-02-01T17:42:31.899Z,52.10
2023-02-01T17:45:03.935Z,51.90
2023-02-01T17:47:33.708Z,51.90
2023-02-01T17:50:03.215Z,52.10
2023-02-01T17:52:32.989Z,51.90
2023-02-01T17:55:04.957Z,51.70
2023-02-01T17:57:34.147Z,51.60
2023-02-01T18:00:04.661Z,51.30
2023-02-01T18:02:34.066Z,51.50
2023-02-01T18:05:03.443Z,51.70
2023-02-01T18:07:32.663Z,51.50
2023-02-01T18:10:03.760Z,51.70
2023-02-01T18:12:35.826Z,51.40
2023-02-01T18:15:17.142Z,51.20
2023-02-01T18:17:46.679Z,50.80
2023-02-01T18:20:17.913Z,50.80
2023-02-01T18:22:49.030Z,50.70
2023-02-01T18:25:22.435Z,50.60
2023-02-01T18:27:53.690Z,50.50
2023-02-01T18:30:24.437Z,50.90
2023-02-01T18:32:53.794Z,51.20
2023-02-01T18:35:26.621Z,51.00
2023-02-01T18:37:56.984Z,50.80
2023-02-01T18:40:30.119Z,50.80
2023-02-01T18:42:59.507Z,51.20
2023-02-01T18:45:33.267Z,50.80
2023-02-01T18:48:02.588Z,50.80
2023-02-01T18:50:33.793Z,51.20
2023-02-01T18:53:04.909Z,51.10
2023-02-01T18:55:35.895Z,51.00
2023-02-01T18:58:07.401Z,50.90
2023-02-01T19:00:37.796Z,50.90
2023-02-01T19:03:07.055Z,51.00
2023-02-01T19:05:36.356Z,50.70
2023-02-01T19:08:05.857Z,50.90
2023-02-01T19:10:38.812Z,50.60
2023-02-01T19:13:08.351Z,50.70
2023-02-01T19:15:40.500Z,50.50
2023-02-01T19:18:10.620Z,50.60
2023-02-01T19:20:45.850Z,50.40
2023-02-01T19:23:15.462Z,50.30
2023-02-01T19:25:47.974Z,50.60
2023-02-01T19:28:17.997Z,50.50
2023-02-01T19:30:47.466Z,50.30
2023-02-01T19:33:18.783Z,50.30
2023-02-01T19:35:48.174Z,50.30
2023-02-01T19:38:17.299Z,50.30
2023-02-01T19:40:50.635Z,50.40
2023-02-01T19:43:19.899Z,50.40
2023-02-01T19:45:49.152Z,50.20
2023-02-01T19:48:19.112Z,50.20
2023-02-01T19:50:48.645Z,50.00
2023-02-01T19:53:19.648Z,49.90
2023-02-01T19:55:50.379Z,49.90
2023-02-01T19:58:19.702Z,49.90
2023-02-01T20:00:48.418Z,49.90
2023-02-01T20:03:17.686Z,49.80
2023-02-01T20:05:46.971Z,49.80
2023-02-01T20:08:16.103Z,49.70
2023-02-01T20:10:45.455Z,49.60
2023-02-01T20:13:16.533Z,49.60
2023-02-01T20:15:46.755Z,49.50
2023-02-01T20:18:16.026Z,49.50
2023-02-01T20:20:45.350Z,49.50
2023-02-01T20:23:14.650Z,49.50
2023-02-01T20:25:44.760Z,49.60
2023-02-01T20:28:13.907Z,49.40
2023-02-01T20:30:46.584Z,49.40
2023-02-01T20:33:17.025Z,49.30
2023-02-01T20:35:46.893Z,49.30
2023-02-01T20:38:16.279Z,49.50
2023-02-01T20:40:45.538Z,49.20
2023-02-01T20:43:15.026Z,49.10
2023-02-01T20:45:46.515Z,49.10
2023-02-01T20:48:16.066Z,49.20
2023-02-01T20:50:45.392Z,49.20
2023-02-01T20:53:26.108Z,49.00
2023-02-01T20:55:57.869Z,49.00
2023-02-01T20:58:27.845Z,48.70
2023-02-01T21:00:59.045Z,48.70
2023-02-01T21:03:28.952Z,48.80
2023-02-01T21:05:59.708Z,48.60
2023-02-01T21:08:30.608Z,48.70
2023-02-01T21:11:01.317Z,48.70
2023-02-01T21:13:33.391Z,48.70
2023-02-01T21:16:05.185Z,48.70
2023-02-01T21:18:34.572Z,48.70
2023-02-01T21:21:06.793Z,48.60
2023-02-01T21:23:45.144Z,48.70
2023-02-01T21:26:15.159Z,48.80
2023-02-01T21:28:44.420Z,48.70
2023-02-01T21:31:17.288Z,48.70
2023-02-01T21:33:47.984Z,48.70
2023-02-01T21:36:20.142Z,48.80
2023-02-01T21:38:51.577Z,48.70
2023-02-01T21:41:39.589Z,48.70
2023-02-01T21:44:09.217Z,48.70
2023-02-01T21:46:40.028Z,48.60
2023-02-01T21:49:09.504Z,48.60
2023-02-01T21:51:38.904Z,48.50
2023-02-01T21:54:09.308Z,48.60
2023-02-01T21:56:39.215Z,48.50
2023-02-01T21:59:10.382Z,48.50
2023-02-01T22:01:42.002Z,48.50
2023-02-01T22:04:11.993Z,48.30
2023-02-01T22:06:42.973Z,48.30
2023-02-01T22:09:18.309Z,48.30
2023-02-01T22:11:48.139Z,48.20
2023-02-01T22:14:18.023Z,48.20
2023-02-01T22:16:49.114Z,48.20
2023-02-01T22:19:20.164Z,48.20
2023-02-01T22:21:50.397Z,48.20
2023-02-01T22:24:21.701Z,48.10
2023-02-01T22:26:51.746Z,48.20
2023-02-01T22:29:21.176Z,48.10
2023-02-01T22:31:52.458Z,48.10
2023-02-01T22:34:22.303Z,48.10
2023-02-01T22:36:51.565Z,48.10
2023-02-01T22:39:20.856Z,48.10
2023-02-01T22:41:50.061Z,48.10
2023-02-01T22:44:19.481Z,48.10
2023-02-01T22:46:48.948Z,48.00
2023-02-01T22:49:19.782Z,48.10
2023-02-01T22:51:50.969Z,48.10
2023-02-01T22:54:22.615Z,48.10
2023-02-01T22:56:52.539Z,48.10
2023-02-01T22:59:21.930Z,48.00
2023-02-01T23:01:51.192Z,48.10
2023-02-01T23:04:22.632Z,48.00
2023-02-01T23:06:52.768Z,48.00
2023-02-01T23:09:23.939Z,48.10
2023-02-01T23:11:53.799Z,48.00
2023-02-01T23:14:23.479Z,48.00
2023-02-01T23:16:52.897Z,48.00
2023-02-01T23:19:23.764Z,48.00
2023-02-01T23:21:53.173Z,48.00
2023-02-01T23:24:22.437Z,48.00
2023-02-01T23:26:51.744Z,48.00
2023-02-01T23:29:21.069Z,48.00
2023-02-01T23:31:50.347Z,48.00
2023-02-01T23:34:19.702Z,48.00
2023-02-01T23:36:50.581Z,81.60
2023-02-01T23:39:20.003Z,48.20
2023-02-01T23:41:49.337Z,48.10
2023-02-01T23:44:18.729Z,48.00
2023-02-01T23:46:48.301Z,48.00
2023-02-01T23:49:18.923Z,48.00
2023-02-01T23:51:53.141Z,48.00
2023-02-01T23:54:23.893Z,48.00
2023-02-01T23:56:53.065Z,48.00
2023-02-01T23:59:23.632Z,48.00
